LGRP Airport Information

Runway Information
Runway 06 Length 10846 ft width 148 ft
Elevation 16 ft Threshold ft Heading 70
Runway 24 Length 10846 ft Width 148 ft
Elevation 17 ft Threshold ft Heading 250
Airport Frequencies
Type A/G Name RDO Frequency 563.7 MHZ
Type APP Name RODOS APP Frequency 118.25 MHZ
Type ATIS Name ATIS Frequency 126.35 MHZ
Type GND Name GND Frequency 121.7 MHZ
Type TWR Name TWR Frequency 118.2 MHZ
Airport Navaids
Type VOR-DME Name Paradisi Frequency 108600 KHZ
Type VOR-DME Name Rodos Frequency 115800 KHZ
Type TACAN Name Rodos Frequency 117400 KHZ
Type NDB Name Rodos Frequency 339 KHZ
Airport Weather Information & NOTAM
ADDS - METARS form results

(2147 UTC 14 August 2022)
Data provider http://aviationweather.gov/metar/data/
 
METAR text: LGRP 142120Z 24012KT CAVOK 26/23 Q1004 NOSIG
Conditions at: LGRP (RHODES/DIAGORAS , GR) observed 2120 UTC 14 August 2022
Temperature: 26.0°C (79°F)
Dewpoint: 23.0°C (73°F) [RH = 84%]
Pressure (altimeter): 29.65 inches Hg (1004.0 mb)
Winds: from the WSW (240 degrees) at 14 MPH (12 knots; 6.2 m/s)
Visibility: 6 or more miles (10+ km)
Ceiling: ceiling and visibility are OK
Clouds: unknown
Weather: no significant weather observed at this time

METAR text: LGRP 142050Z 24012KT CAVOK 26/22 Q1004 NOSIG
Conditions at: LGRP (RHODES/DIAGORAS , GR) observed 2050 UTC 14 August 2022
Temperature: 26.0°C (79°F)
Dewpoint: 22.0°C (72°F) [RH = 79%]
Pressure (altimeter): 29.65 inches Hg (1004.0 mb)
Winds: from the WSW (240 degrees) at 14 MPH (12 knots; 6.2 m/s)
Visibility: 6 or more miles (10+ km)
Ceiling: ceiling and visibility are OK
Clouds: unknown
Weather: no significant weather observed at this time

Forecast for: LGRP (RHODES/DIAGORAS , GR)
Text: TAF LGRP 141700Z 1418/1518 25016KT 9999 FEW015
Forecast period: 1800 UTC 14 August 2022 to 1800 UTC 15 August 2022
Forecast type: FROM: standard forecast or significant change
Winds: from the WSW (250 degrees) at 18 MPH (16 knots; 8.2 m/s)
Visibility: 6 or more miles (10+ km)
Ceiling: at least 12,000 feet AGL
Clouds: few clouds at 1500 feet AGL
Weather: no significant weather forecast for this period